sensor_id;sensor_type;location;lat;lon;timestamp;temperature;humidity
49503;DHT22;35409;48.776;9.204;2023-02-14T00:00:40;-2.00;99.90
49503;DHT22;35409;48.776;9.204;2023-02-14T00:03:06;-1.90;99.90
49503;DHT22;35409;48.776;9.204;2023-02-14T00:05:31;-2.00;99.90
49503;DHT22;35409;48.776;9.204;2023-02-14T00:07:57;-1.90;99.90
49503;DHT22;35409;48.776;9.204;2023-02-14T00:10:23;-2.00;99.90
49503;DHT22;35409;48.776;9.204;2023-02-14T00:12:48;-2.00;99.90
49503;DHT22;35409;48.776;9.204;2023-02-14T00:15:14;-2.00;99.90
49503;DHT22;35409;48.776;9.204;2023-02-14T00:17:50;-2.10;99.90
49503;DHT22;35409;48.776;9.204;2023-02-14T00:20:16;-2.20;99.90
49503;DHT22;35409;48.776;9.204;2023-02-14T00:22:42;-2.20;99.90
49503;DHT22;35409;48.776;9.204;2023-02-14T00:25:08;-2.30;99.90
49503;DHT22;35409;48.776;9.204;2023-02-14T00:27:34;-2.30;99.90
49503;DHT22;35409;48.776;9.204;2023-02-14T00:29:59;-2.20;99.90
49503;DHT22;35409;48.776;9.204;2023-02-14T00:32:28;-2.30;99.90
49503;DHT22;35409;48.776;9.204;2023-02-14T00:34:54;-2.30;99.90
49503;DHT22;35409;48.776;9.204;2023-02-14T00:37:20;-2.30;99.90
49503;DHT22;35409;48.776;9.204;2023-02-14T00:39:46;-2.20;99.90
49503;DHT22;35409;48.776;9.204;2023-02-14T00:42:12;-2.20;99.90
49503;DHT22;35409;48.776;9.204;2023-02-14T00:44:39;-2.20;99.90
49503;DHT22;35409;48.776;9.204;2023-02-14T00:47:04;-2.10;99.90
49503;DHT22;35409;48.776;9.204;2023-02-14T00:49:30;-2.10;99.90
49503;DHT22;35409;48.776;9.204;2023-02-14T00:51:55;-2.10;99.90
49503;DHT22;35409;48.776;9.204;2023-02-14T00:54:21;-2.10;99.90
49503;DHT22;35409;48.776;9.204;2023-02-14T00:56:47;-2.00;99.90
49503;DHT22;35409;48.776;9.204;2023-02-14T00:59:12;-2.00;99.90
49503;DHT22;35409;48.776;9.204;2023-02-14T01:01:38;-2.00;99.90
49503;DHT22;35409;48.776;9.204;2023-02-14T01:04:04;-2.10;99.90
49503;DHT22;35409;48.776;9.204;2023-02-14T01:06:30;-2.10;99.90
49503;DHT22;35409;48.776;9.204;2023-02-14T01:08:56;-2.20;99.90
49503;DHT22;35409;48.776;9.204;2023-02-14T01:11:22;-2.20;99.90
49503;DHT22;35409;48.776;9.204;2023-02-14T01:13:50;-2.30;99.90
49503;DHT22;35409;48.776;9.204;2023-02-14T01:16:21;-2.20;99.90
49503;DHT22;35409;48.776;9.204;2023-02-14T01:18:47;-2.20;99.90
49503;DHT22;35409;48.776;9.204;2023-02-14T01:21:25;-2.30;99.90
49503;DHT22;35409;48.776;9.204;2023-02-14T01:23:53;-2.30;99.90
49503;DHT22;35409;48.776;9.204;2023-02-14T01:26:20;-2.30;99.90
49503;DHT22;35409;48.776;9.204;2023-02-14T01:28:46;-2.30;99.90
49503;DHT22;35409;48.776;9.204;2023-02-14T01:31:18;-2.20;99.90
49503;DHT22;35409;48.776;9.204;2023-02-14T01:33:45;-2.20;99.90
49503;DHT22;35409;48.776;9.204;2023-02-14T01:38:40;-2.20;99.90
49503;DHT22;35409;48.776;9.204;2023-02-14T01:41:06;-2.20;99.90
49503;DHT22;35409;48.776;9.204;2023-02-14T01:46:35;-2.30;99.90
49503;DHT22;35409;48.776;9.204;2023-02-14T01:49:22;-2.30;99.90
49503;DHT22;35409;48.776;9.204;2023-02-14T01:51:52;-2.30;99.90
49503;DHT22;35409;48.776;9.204;2023-02-14T01:54:22;-2.30;99.90
49503;DHT22;35409;48.776;9.204;2023-02-14T01:56:50;-2.30;99.90
49503;DHT22;35409;48.776;9.204;2023-02-14T01:59:20;-2.30;99.90
49503;DHT22;35409;48.776;9.204;2023-02-14T02:01:49;-2.30;99.90
49503;DHT22;35409;48.776;9.204;2023-02-14T02:04:18;-2.30;99.90
49503;DHT22;35409;48.776;9.204;2023-02-14T02:06:55;-2.30;99.90
49503;DHT22;35409;48.776;9.204;2023-02-14T02:12:11;-2.30;99.90
49503;DHT22;35409;48.776;9.204;2023-02-14T02:14:37;-2.40;99.90
49503;DHT22;35409;48.776;9.204;2023-02-14T02:17:10;-2.50;99.90
49503;DHT22;35409;48.776;9.204;2023-02-14T02:38:02;-2.40;99.90
49503;DHT22;35409;48.776;9.204;2023-02-14T02:43:29;-2.40;99.90
49503;DHT22;35409;48.776;9.204;2023-02-14T02:46:04;-2.40;99.90
49503;DHT22;35409;48.776;9.204;2023-02-14T02:51:50;-2.40;99.90
49503;DHT22;35409;48.776;9.204;2023-02-14T02:54:39;-2.50;99.90
49503;DHT22;35409;48.776;9.204;2023-02-14T02:57:13;-2.50;99.90
49503;DHT22;35409;48.776;9.204;2023-02-14T02:59:41;-2.50;99.90
49503;DHT22;35409;48.776;9.204;2023-02-14T03:02:29;-2.50;99.90
49503;DHT22;35409;48.776;9.204;2023-02-14T03:04:58;-2.50;99.90
49503;DHT22;35409;48.776;9.204;2023-02-14T03:21:04;-2.60;99.90
49503;DHT22;35409;48.776;9.204;2023-02-14T03:23:38;-2.50;99.90
49503;DHT22;35409;48.776;9.204;2023-02-14T03:34:20;-2.50;99.90
49503;DHT22;35409;48.776;9.204;2023-02-14T03:37:12;-2.40;99.90
49503;DHT22;35409;48.776;9.204;2023-02-14T03:39:43;-2.50;99.90
49503;DHT22;35409;48.776;9.204;2023-02-14T03:42:21;-2.50;99.90
49503;DHT22;35409;48.776;9.204;2023-02-14T03:44:51;-2.60;99.90
49503;DHT22;35409;48.776;9.204;2023-02-14T03:47:21;-2.60;99.90
49503;DHT22;35409;48.776;9.204;2023-02-14T03:49:55;-2.60;99.90
49503;DHT22;35409;48.776;9.204;2023-02-14T03:52:22;-2.70;99.90
49503;DHT22;35409;48.776;9.204;2023-02-14T03:54:50;-2.70;99.90
49503;DHT22;35409;48.776;9.204;2023-02-14T03:57:41;-2.70;99.90
49503;DHT22;35409;48.776;9.204;2023-02-14T04:00:12;-2.70;99.90
49503;DHT22;35409;48.776;9.204;2023-02-14T04:02:43;-2.70;99.90
49503;DHT22;35409;48.776;9.204;2023-02-14T04:05:22;-2.70;99.90
49503;DHT22;35409;48.776;9.204;2023-02-14T04:07:51;-2.70;99.90
49503;DHT22;35409;48.776;9.204;2023-02-14T04:10:17;-2.80;99.90
49503;DHT22;35409;48.776;9.204;2023-02-14T04:12:43;-2.80;99.90
49503;DHT22;35409;48.776;9.204;2023-02-14T04:15:10;-2.80;99.90
49503;DHT22;35409;48.776;9.204;2023-02-14T04:17:36;-2.80;99.90
49503;DHT22;35409;48.776;9.204;2023-02-14T04:20:20;-2.80;99.90
49503;DHT22;35409;48.776;9.204;2023-02-14T04:22:46;-2.80;99.90
49503;DHT22;35409;48.776;9.204;2023-02-14T04:25:12;-2.80;99.90
49503;DHT22;35409;48.776;9.204;2023-02-14T04:27:37;-2.90;99.90
49503;DHT22;35409;48.776;9.204;2023-02-14T04:30:04;-2.80;99.90
49503;DHT22;35409;48.776;9.204;2023-02-14T04:32:29;-2.80;99.90
49503;DHT22;35409;48.776;9.204;2023-02-14T04:34:55;-2.80;99.90
49503;DHT22;35409;48.776;9.204;2023-02-14T04:37:21;-2.80;99.90
49503;DHT22;35409;48.776;9.204;2023-02-14T04:39:46;-2.80;99.90
49503;DHT22;35409;48.776;9.204;2023-02-14T04:42:12;-2.80;99.90
49503;DHT22;35409;48.776;9.204;2023-02-14T04:44:38;-2.80;99.90
49503;DHT22;35409;48.776;9.204;2023-02-14T04:47:04;-2.80;99.90
49503;DHT22;35409;48.776;9.204;2023-02-14T04:49:30;-2.80;99.90
49503;DHT22;35409;48.776;9.204;2023-02-14T04:51:55;-2.90;99.90
49503;DHT22;35409;48.776;9.204;2023-02-14T04:54:21;-2.90;99.90
49503;DHT22;35409;48.776;9.204;2023-02-14T04:56:47;-2.90;99.90
49503;DHT22;35409;48.776;9.204;2023-02-14T04:59:13;-3.00;99.90
49503;DHT22;35409;48.776;9.204;2023-02-14T05:01:39;-2.90;99.90
49503;DHT22;35409;48.776;9.204;2023-02-14T05:04:05;-3.00;99.90
49503;DHT22;35409;48.776;9.204;2023-02-14T05:06:31;-3.00;99.90
49503;DHT22;35409;48.776;9.204;2023-02-14T05:08:57;-3.00;99.90
49503;DHT22;35409;48.776;9.204;2023-02-14T05:11:23;-2.90;99.90
49503;DHT22;35409;48.776;9.204;2023-02-14T05:13:49;-2.90;99.90
49503;DHT22;35409;48.776;9.204;2023-02-14T05:16:15;-2.90;99.90
49503;DHT22;35409;48.776;9.204;2023-02-14T05:18:40;-2.90;99.90
49503;DHT22;35409;48.776;9.204;2023-02-14T05:21:06;-2.90;99.90
49503;DHT22;35409;48.776;9.204;2023-02-14T05:23:31;-3.00;99.90
49503;DHT22;35409;48.776;9.204;2023-02-14T05:25:57;-3.00;99.90
49503;DHT22;35409;48.776;9.204;2023-02-14T05:28:23;-2.90;99.90
49503;DHT22;35409;48.776;9.204;2023-02-14T05:30:49;-2.80;99.90
49503;DHT22;35409;48.776;9.204;2023-02-14T05:33:15;-2.90;99.90
49503;DHT22;35409;48.776;9.204;2023-02-14T05:35:41;-2.90;99.90
49503;DHT22;35409;48.776;9.204;2023-02-14T05:38:06;-3.00;99.90
49503;DHT22;35409;48.776;9.204;2023-02-14T05:40:32;-3.00;99.90
49503;DHT22;35409;48.776;9.204;2023-02-14T05:42:57;-3.00;99.90
49503;DHT22;35409;48.776;9.204;2023-02-14T05:45:23;-3.10;99.90
49503;DHT22;35409;48.776;9.204;2023-02-14T05:47:49;-3.00;99.90
49503;DHT22;35409;48.776;9.204;2023-02-14T05:50:15;-3.00;99.90
49503;DHT22;35409;48.776;9.204;2023-02-14T05:52:41;-3.00;99.90
49503;DHT22;35409;48.776;9.204;2023-02-14T05:55:07;-3.00;99.90
49503;DHT22;35409;48.776;9.204;2023-02-14T05:57:32;-3.10;99.90
49503;DHT22;35409;48.776;9.204;2023-02-14T05:59:58;-3.10;99.90
49503;DHT22;35409;48.776;9.204;2023-02-14T06:02:24;-3.20;99.90
49503;DHT22;35409;48.776;9.204;2023-02-14T06:04:50;-3.10;99.90
49503;DHT22;35409;48.776;9.204;2023-02-14T06:07:16;-3.20;99.90
49503;DHT22;35409;48.776;9.204;2023-02-14T06:09:41;-3.20;99.90
49503;DHT22;35409;48.776;9.204;2023-02-14T06:12:07;-3.30;99.90
49503;DHT22;35409;48.776;9.204;2023-02-14T06:14:33;-3.30;99.90
49503;DHT22;35409;48.776;9.204;2023-02-14T06:16:58;-3.20;99.90
49503;DHT22;35409;48.776;9.204;2023-02-14T06:19:24;-3.20;99.90
49503;DHT22;35409;48.776;9.204;2023-02-14T06:21:49;-3.20;99.90
49503;DHT22;35409;48.776;9.204;2023-02-14T06:24:15;-3.20;99.90
49503;DHT22;35409;48.776;9.204;2023-02-14T06:26:41;-3.10;99.90
49503;DHT22;35409;48.776;9.204;2023-02-14T06:29:06;-3.10;99.90
49503;DHT22;35409;48.776;9.204;2023-02-14T06:31:32;-3.10;99.90
49503;DHT22;35409;48.776;9.204;2023-02-14T06:33:57;-3.10;99.90
49503;DHT22;35409;48.776;9.204;2023-02-14T06:36:23;-3.10;99.90
49503;DHT22;35409;48.776;9.204;2023-02-14T06:38:49;-3.10;99.90
49503;DHT22;35409;48.776;9.204;2023-02-14T06:41:15;-3.10;99.90
49503;DHT22;35409;48.776;9.204;2023-02-14T06:43:45;-3.10;99.90
49503;DHT22;35409;48.776;9.204;2023-02-14T06:46:13;-3.10;99.90
49503;DHT22;35409;48.776;9.204;2023-02-14T06:48:39;-3.00;99.90
49503;DHT22;35409;48.776;9.204;2023-02-14T06:51:05;-2.90;99.90
49503;DHT22;35409;48.776;9.204;2023-02-14T06:53:30;-2.90;99.90
49503;DHT22;35409;48.776;9.204;2023-02-14T06:55:56;-2.90;99.90
49503;DHT22;35409;48.776;9.204;2023-02-14T06:58:21;-2.80;99.90
49503;DHT22;35409;48.776;9.204;2023-02-14T07:00:47;-2.80;99.90
49503;DHT22;35409;48.776;9.204;2023-02-14T07:03:13;-2.80;99.90
49503;DHT22;35409;48.776;9.204;2023-02-14T07:05:39;-2.80;99.90
49503;DHT22;35409;48.776;9.204;2023-02-14T07:08:05;-2.80;99.90
49503;DHT22;35409;48.776;9.204;2023-02-14T07:10:33;-2.80;99.90
49503;DHT22;35409;48.776;9.204;2023-02-14T07:12:59;-2.70;99.90
49503;DHT22;35409;48.776;9.204;2023-02-14T07:15:25;-2.60;99.90
49503;DHT22;35409;48.776;9.204;2023-02-14T07:17:51;-2.50;99.90
49503;DHT22;35409;48.776;9.204;2023-02-14T07:20:17;-2.50;99.90
49503;DHT22;35409;48.776;9.204;2023-02-14T07:22:43;-2.50;99.90
49503;DHT22;35409;48.776;9.204;2023-02-14T07:25:09;-2.50;99.90
49503;DHT22;35409;48.776;9.204;2023-02-14T07:27:35;-2.50;99.90
49503;DHT22;35409;48.776;9.204;2023-02-14T07:30:01;-2.50;99.90
49503;DHT22;35409;48.776;9.204;2023-02-14T07:32:26;-2.40;99.90
49503;DHT22;35409;48.776;9.204;2023-02-14T07:34:58;-2.40;99.90
49503;DHT22;35409;48.776;9.204;2023-02-14T07:37:23;-2.40;99.90
49503;DHT22;35409;48.776;9.204;2023-02-14T07:39:49;-2.40;99.90
49503;DHT22;35409;48.776;9.204;2023-02-14T07:42:15;-2.40;99.90
49503;DHT22;35409;48.776;9.204;2023-02-14T07:44:40;-2.40;99.90
49503;DHT22;35409;48.776;9.204;2023-02-14T07:47:07;-2.30;99.90
49503;DHT22;35409;48.776;9.204;2023-02-14T07:49:34;-2.20;99.90
49503;DHT22;35409;48.776;9.204;2023-02-14T07:51:59;-2.20;99.90
49503;DHT22;35409;48.776;9.204;2023-02-14T07:54:25;-2.00;99.90
49503;DHT22;35409;48.776;9.204;2023-02-14T07:56:51;-2.00;99.90
49503;DHT22;35409;48.776;9.204;2023-02-14T07:59:16;-1.90;99.90
49503;DHT22;35409;48.776;9.204;2023-02-14T08:01:42;-1.80;99.90
49503;DHT22;35409;48.776;9.204;2023-02-14T08:04:07;-1.70;99.90
49503;DHT22;35409;48.776;9.204;2023-02-14T08:06:34;-1.60;99.90
49503;DHT22;35409;48.776;9.204;2023-02-14T08:09:00;-1.50;99.90
49503;DHT22;35409;48.776;9.204;2023-02-14T08:11:26;-1.40;99.90
49503;DHT22;35409;48.776;9.204;2023-02-14T08:14:10;-1.30;99.90
49503;DHT22;35409;48.776;9.204;2023-02-14T08:16:35;-1.20;99.90
49503;DHT22;35409;48.776;9.204;2023-02-14T08:19:02;-1.10;99.90
49503;DHT22;35409;48.776;9.204;2023-02-14T08:21:28;-1.00;99.90
49503;DHT22;35409;48.776;9.204;2023-02-14T08:23:54;-0.90;99.90
49503;DHT22;35409;48.776;9.204;2023-02-14T08:26:20;-0.80;99.90
49503;DHT22;35409;48.776;9.204;2023-02-14T08:28:46;-0.70;99.90
49503;DHT22;35409;48.776;9.204;2023-02-14T08:31:11;-0.60;99.90
49503;DHT22;35409;48.776;9.204;2023-02-14T08:33:37;-0.50;99.90
49503;DHT22;35409;48.776;9.204;2023-02-14T08:36:03;-0.40;99.90
49503;DHT22;35409;48.776;9.204;2023-02-14T08:38:29;-0.30;99.90
49503;DHT22;35409;48.776;9.204;2023-02-14T08:40:59;-0.20;99.90
49503;DHT22;35409;48.776;9.204;2023-02-14T08:43:25;-0.10;99.90
49503;DHT22;35409;48.776;9.204;2023-02-14T08:45:52;0.00;99.90
49503;DHT22;35409;48.776;9.204;2023-02-14T08:48:18;0.20;99.90
49503;DHT22;35409;48.776;9.204;2023-02-14T08:50:43;0.30;99.90
49503;DHT22;35409;48.776;9.204;2023-02-14T08:53:11;0.40;99.90
49503;DHT22;35409;48.776;9.204;2023-02-14T09:02:57;1.00;99.90
49503;DHT22;35409;48.776;9.204;2023-02-14T09:05:22;1.10;99.90
49503;DHT22;35409;48.776;9.204;2023-02-14T09:07:48;1.20;99.90
49503;DHT22;35409;48.776;9.204;2023-02-14T09:10:14;1.30;99.90
49503;DHT22;35409;48.776;9.204;2023-02-14T09:12:43;1.40;99.90
49503;DHT22;35409;48.776;9.204;2023-02-14T09:15:09;1.50;99.90
49503;DHT22;35409;48.776;9.204;2023-02-14T09:17:36;1.50;99.90
49503;DHT22;35409;48.776;9.204;2023-02-14T09:20:04;1.60;99.90
49503;DHT22;35409;48.776;9.204;2023-02-14T09:22:32;1.70;99.90
49503;DHT22;35409;48.776;9.204;2023-02-14T09:24:57;1.90;99.90
49503;DHT22;35409;48.776;9.204;2023-02-14T09:27:23;1.90;99.90
49503;DHT22;35409;48.776;9.204;2023-02-14T09:29:49;2.00;99.90
49503;DHT22;35409;48.776;9.204;2023-02-14T09:32:15;2.10;99.90
49503;DHT22;35409;48.776;9.204;2023-02-14T09:34:40;2.20;99.90
49503;DHT22;35409;48.776;9.204;2023-02-14T09:37:25;2.30;99.90
49503;DHT22;35409;48.776;9.204;2023-02-14T09:40:12;2.50;99.90
49503;DHT22;35409;48.776;9.204;2023-02-14T09:42:50;2.60;99.90
49503;DHT22;35409;48.776;9.204;2023-02-14T10:25:50;4.50;99.90
49503;DHT22;35409;48.776;9.204;2023-02-14T10:28:26;4.60;99.90
49503;DHT22;35409;48.776;9.204;2023-02-14T10:31:13;4.70;99.90
49503;DHT22;35409;48.776;9.204;2023-02-14T10:33:42;4.80;99.90
49503;DHT22;35409;48.776;9.204;2023-02-14T10:36:23;4.90;99.90
49503;DHT22;35409;48.776;9.204;2023-02-14T10:44:22;5.20;99.90
49503;DHT22;35409;48.776;9.204;2023-02-14T10:54:55;5.60;99.90
49503;DHT22;35409;48.776;9.204;2023-02-14T12:14:25;8.20;99.90
49503;DHT22;35409;48.776;9.204;2023-02-14T12:22:56;8.40;99.90
49503;DHT22;35409;48.776;9.204;2023-02-14T12:25:24;8.40;99.90
49503;DHT22;35409;48.776;9.204;2023-02-14T12:27:57;8.40;99.90
49503;DHT22;35409;48.776;9.204;2023-02-14T12:30:28;8.50;99.90
49503;DHT22;35409;48.776;9.204;2023-02-14T12:32:56;8.60;99.90
49503;DHT22;35409;48.776;9.204;2023-02-14T12:35:40;8.50;99.90
49503;DHT22;35409;48.776;9.204;2023-02-14T12:43:44;8.80;99.90
49503;DHT22;35409;48.776;9.204;2023-02-14T13:00:17;10.90;99.90
49503;DHT22;35409;48.776;9.204;2023-02-14T13:03:09;11.30;99.90
49503;DHT22;35409;48.776;9.204;2023-02-14T13:05:52;11.70;99.90
49503;DHT22;35409;48.776;9.204;2023-02-14T13:17:18;13.30;97.30
49503;DHT22;35409;48.776;9.204;2023-02-14T13:22:31;13.80;95.90
49503;DHT22;35409;48.776;9.204;2023-02-14T13:25:16;14.20;94.60
49503;DHT22;35409;48.776;9.204;2023-02-14T13:27:44;14.30;95.00
49503;DHT22;35409;48.776;9.204;2023-02-14T13:30:15;14.40;94.40
49503;DHT22;35409;48.776;9.204;2023-02-14T13:32:44;14.50;94.10
49503;DHT22;35409;48.776;9.204;2023-02-14T13:35:18;14.50;93.40
49503;DHT22;35409;48.776;9.204;2023-02-14T13:37:52;14.50;93.20
49503;DHT22;35409;48.776;9.204;2023-02-14T13:40:25;14.40;93.20
49503;DHT22;35409;48.776;9.204;2023-02-14T13:42:57;14.30;93.10
49503;DHT22;35409;48.776;9.204;2023-02-14T13:48:09;14.20;93.10
49503;DHT22;35409;48.776;9.204;2023-02-14T13:51:01;14.00;93.30
49503;DHT22;35409;48.776;9.204;2023-02-14T13:56:04;13.80;93.50
49503;DHT22;35409;48.776;9.204;2023-02-14T13:58:31;13.80;93.40
49503;DHT22;35409;48.776;9.204;2023-02-14T14:00:57;13.70;93.20
49503;DHT22;35409;48.776;9.204;2023-02-14T14:06:09;13.30;94.30
49503;DHT22;35409;48.776;9.204;2023-02-14T14:11:50;13.10;94.50
49503;DHT22;35409;48.776;9.204;2023-02-14T14:14:27;12.80;94.80
49503;DHT22;35409;48.776;9.204;2023-02-14T14:16:59;12.10;95.60
49503;DHT22;35409;48.776;9.204;2023-02-14T14:22:03;11.40;97.70
49503;DHT22;35409;48.776;9.204;2023-02-14T14:24:37;11.00;98.70
49503;DHT22;35409;48.776;9.204;2023-02-14T14:27:13;10.80;99.60
49503;DHT22;35409;48.776;9.204;2023-02-14T14:30:22;10.60;99.90
49503;DHT22;35409;48.776;9.204;2023-02-14T14:32:45;10.40;99.90
49503;DHT22;35409;48.776;9.204;2023-02-14T14:37:48;10.20;99.90
49503;DHT22;35409;48.776;9.204;2023-02-14T14:42:49;10.10;99.90
49503;DHT22;35409;48.776;9.204;2023-02-14T14:45:28;10.00;99.90
49503;DHT22;35409;48.776;9.204;2023-02-14T14:47:57;10.00;99.90
49503;DHT22;35409;48.776;9.204;2023-02-14T14:50:29;9.90;99.90
49503;DHT22;35409;48.776;9.204;2023-02-14T14:53:20;9.80;99.90
49503;DHT22;35409;48.776;9.204;2023-02-14T14:55:47;9.70;99.90
49503;DHT22;35409;48.776;9.204;2023-02-14T14:58:36;9.60;99.90
49503;DHT22;35409;48.776;9.204;2023-02-14T15:01:03;9.50;99.90
49503;DHT22;35409;48.776;9.204;2023-02-14T15:03:30;9.40;99.90
49503;DHT22;35409;48.776;9.204;2023-02-14T15:06:17;9.40;99.90
49503;DHT22;35409;48.776;9.204;2023-02-14T15:08:44;9.40;99.90
49503;DHT22;35409;48.776;9.204;2023-02-14T15:11:23;9.40;99.90
49503;DHT22;35409;48.776;9.204;2023-02-14T15:14:16;9.30;99.90
49503;DHT22;35409;48.776;9.204;2023-02-14T15:17:02;9.20;99.90
49503;DHT22;35409;48.776;9.204;2023-02-14T15:19:35;9.10;99.90
49503;DHT22;35409;48.776;9.204;2023-02-14T15:24:49;9.00;99.90
49503;DHT22;35409;48.776;9.204;2023-02-14T15:27:19;8.90;99.90
49503;DHT22;35409;48.776;9.204;2023-02-14T15:32:22;8.90;99.90
49503;DHT22;35409;48.776;9.204;2023-02-14T15:34:48;8.90;99.90
49503;DHT22;35409;48.776;9.204;2023-02-14T15:37:14;8.70;99.90
49503;DHT22;35409;48.776;9.204;2023-02-14T15:39:44;8.60;99.90
49503;DHT22;35409;48.776;9.204;2023-02-14T15:42:25;8.50;99.90
49503;DHT22;35409;48.776;9.204;2023-02-14T15:47:43;8.30;99.90
49503;DHT22;35409;48.776;9.204;2023-02-14T15:50:23;8.30;99.90
49503;DHT22;35409;48.776;9.204;2023-02-14T15:52:53;8.20;99.90
49503;DHT22;35409;48.776;9.204;2023-02-14T15:55:21;8.00;99.90
49503;DHT22;35409;48.776;9.204;2023-02-14T15:57:53;8.00;99.90
49503;DHT22;35409;48.776;9.204;2023-02-14T16:00:20;7.90;99.90
49503;DHT22;35409;48.776;9.204;2023-02-14T16:02:55;7.80;99.90
49503;DHT22;35409;48.776;9.204;2023-02-14T16:05:24;7.60;99.90
49503;DHT22;35409;48.776;9.204;2023-02-14T16:08:02;7.40;99.90
49503;DHT22;35409;48.776;9.204;2023-02-14T16:10:34;7.30;99.90
49503;DHT22;35409;48.776;9.204;2023-02-14T16:15:54;7.00;99.90
49503;DHT22;35409;48.776;9.204;2023-02-14T16:21:11;6.80;99.90
49503;DHT22;35409;48.776;9.204;2023-02-14T16:23:38;6.70;99.90
49503;DHT22;35409;48.776;9.204;2023-02-14T16:26:07;6.70;99.90
49503;DHT22;35409;48.776;9.204;2023-02-14T16:28:34;6.60;99.90
49503;DHT22;35409;48.776;9.204;2023-02-14T16:31:02;6.40;99.90
49503;DHT22;35409;48.776;9.204;2023-02-14T16:33:32;6.30;99.90
49503;DHT22;35409;48.776;9.204;2023-02-14T16:36:18;6.20;99.90
49503;DHT22;35409;48.776;9.204;2023-02-14T16:38:46;6.00;99.90
49503;DHT22;35409;48.776;9.204;2023-02-14T16:41:15;5.80;99.90
49503;DHT22;35409;48.776;9.204;2023-02-14T16:43:41;5.70;99.90
49503;DHT22;35409;48.776;9.204;2023-02-14T16:46:13;5.50;99.90
49503;DHT22;35409;48.776;9.204;2023-02-14T16:48:40;5.40;99.90
49503;DHT22;35409;48.776;9.204;2023-02-14T16:51:07;5.20;99.90
49503;DHT22;35409;48.776;9.204;2023-02-14T16:53:34;5.10;99.90
49503;DHT22;35409;48.776;9.204;2023-02-14T16:56:00;5.00;99.90
49503;DHT22;35409;48.776;9.204;2023-02-14T16:58:31;4.90;99.90
49503;DHT22;35409;48.776;9.204;2023-02-14T17:00:58;4.80;99.90
49503;DHT22;35409;48.776;9.204;2023-02-14T17:03:24;4.70;99.90
49503;DHT22;35409;48.776;9.204;2023-02-14T17:05:49;4.60;99.90
49503;DHT22;35409;48.776;9.204;2023-02-14T17:08:15;4.40;99.90
49503;DHT22;35409;48.776;9.204;2023-02-14T17:10:42;4.30;99.90
49503;DHT22;35409;48.776;9.204;2023-02-14T17:13:09;4.20;99.90
49503;DHT22;35409;48.776;9.204;2023-02-14T17:15:36;4.10;99.90
49503;DHT22;35409;48.776;9.204;2023-02-14T17:18:08;4.00;99.90
49503;DHT22;35409;48.776;9.204;2023-02-14T17:20:34;3.90;99.90
49503;DHT22;35409;48.776;9.204;2023-02-14T17:23:00;3.80;99.90
49503;DHT22;35409;48.776;9.204;2023-02-14T17:25:25;3.70;99.90
49503;DHT22;35409;48.776;9.204;2023-02-14T17:27:51;3.60;99.90
49503;DHT22;35409;48.776;9.204;2023-02-14T17:30:17;3.60;99.90
49503;DHT22;35409;48.776;9.204;2023-02-14T17:32:43;3.50;99.90
49503;DHT22;35409;48.776;9.204;2023-02-14T17:35:09;3.40;99.90
49503;DHT22;35409;48.776;9.204;2023-02-14T17:37:35;3.30;99.90
49503;DHT22;35409;48.776;9.204;2023-02-14T17:40:02;3.20;99.90
49503;DHT22;35409;48.776;9.204;2023-02-14T17:42:30;3.20;99.90
49503;DHT22;35409;48.776;9.204;2023-02-14T17:44:56;3.10;99.90
49503;DHT22;35409;48.776;9.204;2023-02-14T17:47:22;3.00;99.90
49503;DHT22;35409;48.776;9.204;2023-02-14T17:49:48;3.00;99.90
49503;DHT22;35409;48.776;9.204;2023-02-14T17:52:14;2.90;99.90
49503;DHT22;35409;48.776;9.204;2023-02-14T17:54:40;2.80;99.90
49503;DHT22;35409;48.776;9.204;2023-02-14T17:57:05;2.80;99.90
49503;DHT22;35409;48.776;9.204;2023-02-14T17:59:32;2.70;99.90
49503;DHT22;35409;48.776;9.204;2023-02-14T18:01:57;2.70;99.90
49503;DHT22;35409;48.776;9.204;2023-02-14T18:04:24;2.60;99.90
49503;DHT22;35409;48.776;9.204;2023-02-14T18:06:49;2.50;99.90
49503;DHT22;35409;48.776;9.204;2023-02-14T18:09:15;2.50;99.90
49503;DHT22;35409;48.776;9.204;2023-02-14T18:11:41;2.40;99.90
49503;DHT22;35409;48.776;9.204;2023-02-14T18:14:09;2.40;99.90
49503;DHT22;35409;48.776;9.204;2023-02-14T18:16:37;2.30;99.90
49503;DHT22;35409;48.776;9.204;2023-02-14T18:19:04;2.30;99.90
49503;DHT22;35409;48.776;9.204;2023-02-14T18:21:32;2.30;99.90
49503;DHT22;35409;48.776;9.204;2023-02-14T18:24:00;2.20;99.90
49503;DHT22;35409;48.776;9.204;2023-02-14T18:26:26;2.20;99.90
49503;DHT22;35409;48.776;9.204;2023-02-14T18:28:52;2.10;99.90
49503;DHT22;35409;48.776;9.204;2023-02-14T18:31:18;2.10;99.90
49503;DHT22;35409;48.776;9.204;2023-02-14T18:33:47;2.00;99.90
49503;DHT22;35409;48.776;9.204;2023-02-14T18:36:15;2.00;99.90
49503;DHT22;35409;48.776;9.204;2023-02-14T18:38:42;2.00;99.90
49503;DHT22;35409;48.776;9.204;2023-02-14T18:41:11;1.90;99.90
49503;DHT22;35409;48.776;9.204;2023-02-14T18:43:36;1.90;99.90
49503;DHT22;35409;48.776;9.204;2023-02-14T18:46:10;1.80;99.90
49503;DHT22;35409;48.776;9.204;2023-02-14T18:48:37;1.80;99.90
49503;DHT22;35409;48.776;9.204;2023-02-14T18:51:07;1.70;99.90
49503;DHT22;35409;48.776;9.204;2023-02-14T18:53:34;1.70;99.90
49503;DHT22;35409;48.776;9.204;2023-02-14T18:56:15;1.70;99.90
49503;DHT22;35409;48.776;9.204;2023-02-14T18:58:43;1.60;99.90
49503;DHT22;35409;48.776;9.204;2023-02-14T19:01:15;1.60;99.90
49503;DHT22;35409;48.776;9.204;2023-02-14T19:03:41;1.60;99.90
49503;DHT22;35409;48.776;9.204;2023-02-14T19:06:08;1.50;99.90
49503;DHT22;35409;48.776;9.204;2023-02-14T19:08:35;1.40;99.90
49503;DHT22;35409;48.776;9.204;2023-02-14T19:11:01;1.50;99.90
49503;DHT22;35409;48.776;9.204;2023-02-14T19:13:27;1.40;99.90
49503;DHT22;35409;48.776;9.204;2023-02-14T19:15:58;1.40;99.90
49503;DHT22;35409;48.776;9.204;2023-02-14T19:18:24;1.40;99.90
49503;DHT22;35409;48.776;9.204;2023-02-14T19:20:50;1.40;99.90
49503;DHT22;35409;48.776;9.204;2023-02-14T19:23:15;1.40;99.90
49503;DHT22;35409;48.776;9.204;2023-02-14T19:25:41;1.30;99.90
49503;DHT22;35409;48.776;9.204;2023-02-14T19:28:07;1.30;99.90
49503;DHT22;35409;48.776;9.204;2023-02-14T19:30:36;1.20;99.90
49503;DHT22;35409;48.776;9.204;2023-02-14T19:33:02;1.20;99.90
49503;DHT22;35409;48.776;9.204;2023-02-14T19:35:27;1.20;99.90
49503;DHT22;35409;48.776;9.204;2023-02-14T19:37:53;1.20;99.90
49503;DHT22;35409;48.776;9.204;2023-02-14T19:40:20;1.20;99.90
49503;DHT22;35409;48.776;9.204;2023-02-14T19:42:45;1.20;99.90
49503;DHT22;35409;48.776;9.204;2023-02-14T19:45:11;1.20;99.90
49503;DHT22;35409;48.776;9.204;2023-02-14T19:47:37;1.10;99.90
49503;DHT22;35409;48.776;9.204;2023-02-14T19:50:04;1.10;99.90
49503;DHT22;35409;48.776;9.204;2023-02-14T19:52:30;1.10;99.90
49503;DHT22;35409;48.776;9.204;2023-02-14T19:54:56;1.00;99.90
49503;DHT22;35409;48.776;9.204;2023-02-14T19:57:22;1.00;99.90
49503;DHT22;35409;48.776;9.204;2023-02-14T19:59:47;0.90;99.90
49503;DHT22;35409;48.776;9.204;2023-02-14T20:02:15;0.90;99.90
49503;DHT22;35409;48.776;9.204;2023-02-14T20:04:41;0.90;99.90
49503;DHT22;35409;48.776;9.204;2023-02-14T20:07:06;0.90;99.90
49503;DHT22;35409;48.776;9.204;2023-02-14T20:09:32;0.80;99.90